sensor_id;sensor_type;location;lat;lon;timestamp;P1;durP1;ratioP1;P2;durP2;ratioP2
14377;SDS011;7272;53.668;9.578;2024-02-21T00:01:28;17.93;;;15.03;;
14377;SDS011;7272;53.668;9.578;2024-02-21T00:04:29;21.67;;;15.57;;
14377;SDS011;7272;53.668;9.578;2024-02-21T00:07:30;23.70;;;15.10;;
14377;SDS011;7272;53.668;9.578;2024-02-21T00:10:32;22.77;;;17.13;;
14377;SDS011;7272;53.668;9.578;2024-02-21T00:13:34;25.80;;;16.77;;
14377;SDS011;7272;53.668;9.578;2024-02-21T00:16:35;22.47;;;17.40;;
14377;SDS011;7272;53.668;9.578;2024-02-21T00:19:36;20.10;;;16.10;;
14377;SDS011;7272;53.668;9.578;2024-02-21T00:22:37;24.43;;;15.97;;
14377;SDS011;7272;53.668;9.578;2024-02-21T00:25:39;24.83;;;17.17;;
14377;SDS011;7272;53.668;9.578;2024-02-21T00:28:40;24.27;;;16.37;;
14377;SDS011;7272;53.668;9.578;2024-02-21T00:31:41;21.23;;;15.93;;
14377;SDS011;7272;53.668;9.578;2024-02-21T00:34:44;19.03;;;15.30;;
14377;SDS011;7272;53.668;9.578;2024-02-21T00:37:45;22.80;;;15.63;;
14377;SDS011;7272;53.668;9.578;2024-02-21T00:40:47;24.33;;;15.77;;
14377;SDS011;7272;53.668;9.578;2024-02-21T00:43:48;23.20;;;16.57;;
14377;SDS011;7272;53.668;9.578;2024-02-21T00:46:50;24.23;;;15.87;;
14377;SDS011;7272;53.668;9.578;2024-02-21T00:49:52;20.27;;;15.17;;
14377;SDS011;7272;53.668;9.578;2024-02-21T00:52:53;22.33;;;16.20;;
14377;SDS011;7272;53.668;9.578;2024-02-21T00:55:55;27.47;;;16.17;;
14377;SDS011;7272;53.668;9.578;2024-02-21T00:58:57;26.13;;;16.17;;
14377;SDS011;7272;53.668;9.578;2024-02-21T01:01:58;21.07;;;15.40;;
14377;SDS011;7272;53.668;9.578;2024-02-21T01:04:59;23.63;;;16.87;;
14377;SDS011;7272;53.668;9.578;2024-02-21T01:08:03;19.13;;;15.50;;
14377;SDS011;7272;53.668;9.578;2024-02-21T01:11:05;20.37;;;15.67;;
14377;SDS011;7272;53.668;9.578;2024-02-21T01:14:06;18.23;;;14.87;;
14377;SDS011;7272;53.668;9.578;2024-02-21T01:17:08;19.13;;;15.80;;
14377;SDS011;7272;53.668;9.578;2024-02-21T01:20:09;23.27;;;16.93;;
14377;SDS011;7272;53.668;9.578;2024-02-21T01:23:11;20.67;;;15.30;;
14377;SDS011;7272;53.668;9.578;2024-02-21T01:26:13;26.57;;;17.13;;
14377;SDS011;7272;53.668;9.578;2024-02-21T01:29:15;21.27;;;15.77;;
14377;SDS011;7272;53.668;9.578;2024-02-21T01:32:16;22.97;;;16.40;;
14377;SDS011;7272;53.668;9.578;2024-02-21T01:35:18;21.40;;;15.10;;
14377;SDS011;7272;53.668;9.578;2024-02-21T01:38:19;21.20;;;15.20;;
14377;SDS011;7272;53.668;9.578;2024-02-21T01:41:21;21.87;;;16.13;;
14377;SDS011;7272;53.668;9.578;2024-02-21T01:44:22;19.93;;;15.33;;
14377;SDS011;7272;53.668;9.578;2024-02-21T01:47:23;23.33;;;15.50;;
14377;SDS011;7272;53.668;9.578;2024-02-21T01:50:25;21.73;;;17.00;;
14377;SDS011;7272;53.668;9.578;2024-02-21T01:53:27;20.00;;;15.77;;
14377;SDS011;7272;53.668;9.578;2024-02-21T01:56:31;23.87;;;15.97;;
14377;SDS011;7272;53.668;9.578;2024-02-21T01:59:33;24.63;;;15.90;;
14377;SDS011;7272;53.668;9.578;2024-02-21T02:02:36;24.90;;;15.63;;
14377;SDS011;7272;53.668;9.578;2024-02-21T02:05:39;25.07;;;18.10;;
14377;SDS011;7272;53.668;9.578;2024-02-21T02:08:40;21.87;;;16.70;;
14377;SDS011;7272;53.668;9.578;2024-02-21T02:11:42;22.93;;;16.97;;
14377;SDS011;7272;53.668;9.578;2024-02-21T02:14:44;23.87;;;17.23;;
14377;SDS011;7272;53.668;9.578;2024-02-21T02:17:45;21.40;;;16.93;;
14377;SDS011;7272;53.668;9.578;2024-02-21T02:20:47;23.43;;;17.17;;
14377;SDS011;7272;53.668;9.578;2024-02-21T02:23:49;25.90;;;17.37;;
14377;SDS011;7272;53.668;9.578;2024-02-21T02:26:50;18.57;;;16.60;;
14377;SDS011;7272;53.668;9.578;2024-02-21T02:29:51;21.50;;;16.67;;
14377;SDS011;7272;53.668;9.578;2024-02-21T02:32:53;23.87;;;16.80;;
14377;SDS011;7272;53.668;9.578;2024-02-21T02:35:54;22.27;;;17.17;;
14377;SDS011;7272;53.668;9.578;2024-02-21T02:38:56;20.70;;;17.10;;
14377;SDS011;7272;53.668;9.578;2024-02-21T02:41:57;23.67;;;18.10;;
14377;SDS011;7272;53.668;9.578;2024-02-21T02:44:58;20.27;;;16.63;;
14377;SDS011;7272;53.668;9.578;2024-02-21T02:47:59;23.63;;;17.17;;
14377;SDS011;7272;53.668;9.578;2024-02-21T02:51:00;19.00;;;17.00;;
14377;SDS011;7272;53.668;9.578;2024-02-21T02:54:03;24.67;;;18.53;;
14377;SDS011;7272;53.668;9.578;2024-02-21T02:57:04;23.23;;;18.03;;
14377;SDS011;7272;53.668;9.578;2024-02-21T03:00:06;23.67;;;18.00;;
14377;SDS011;7272;53.668;9.578;2024-02-21T03:03:09;22.10;;;17.73;;
14377;SDS011;7272;53.668;9.578;2024-02-21T03:06:10;24.47;;;17.50;;
14377;SDS011;7272;53.668;9.578;2024-02-21T03:09:12;26.10;;;18.97;;
14377;SDS011;7272;53.668;9.578;2024-02-21T03:12:15;23.27;;;17.23;;
14377;SDS011;7272;53.668;9.578;2024-02-21T03:15:24;20.97;;;16.37;;
14377;SDS011;7272;53.668;9.578;2024-02-21T03:18:25;23.30;;;16.53;;
14377;SDS011;7272;53.668;9.578;2024-02-21T03:21:26;21.27;;;16.63;;
14377;SDS011;7272;53.668;9.578;2024-02-21T03:24:28;20.10;;;15.93;;
14377;SDS011;7272;53.668;9.578;2024-02-21T03:27:32;21.33;;;14.67;;
14377;SDS011;7272;53.668;9.578;2024-02-21T03:30:33;22.77;;;16.20;;
14377;SDS011;7272;53.668;9.578;2024-02-21T03:33:34;18.17;;;15.47;;
14377;SDS011;7272;53.668;9.578;2024-02-21T03:36:35;21.30;;;14.67;;
14377;SDS011;7272;53.668;9.578;2024-02-21T03:39:38;21.00;;;15.33;;
14377;SDS011;7272;53.668;9.578;2024-02-21T03:42:39;16.77;;;14.87;;
14377;SDS011;7272;53.668;9.578;2024-02-21T03:45:40;17.27;;;14.60;;
14377;SDS011;7272;53.668;9.578;2024-02-21T03:48:41;16.50;;;14.23;;
14377;SDS011;7272;53.668;9.578;2024-02-21T03:51:42;17.40;;;15.47;;
14377;SDS011;7272;53.668;9.578;2024-02-21T03:54:44;18.73;;;16.20;;
14377;SDS011;7272;53.668;9.578;2024-02-21T03:57:45;22.83;;;15.70;;
14377;SDS011;7272;53.668;9.578;2024-02-21T04:00:47;18.00;;;14.90;;
14377;SDS011;7272;53.668;9.578;2024-02-21T04:03:48;18.47;;;14.17;;
14377;SDS011;7272;53.668;9.578;2024-02-21T04:06:49;18.03;;;14.20;;
14377;SDS011;7272;53.668;9.578;2024-02-21T04:09:52;17.47;;;13.33;;
14377;SDS011;7272;53.668;9.578;2024-02-21T04:12:53;20.53;;;15.57;;
14377;SDS011;7272;53.668;9.578;2024-02-21T04:15:55;15.67;;;14.10;;
14377;SDS011;7272;53.668;9.578;2024-02-21T04:18:57;16.17;;;14.03;;
14377;SDS011;7272;53.668;9.578;2024-02-21T04:21:58;15.97;;;13.13;;
14377;SDS011;7272;53.668;9.578;2024-02-21T04:25:00;16.63;;;13.40;;
14377;SDS011;7272;53.668;9.578;2024-02-21T04:28:01;14.47;;;12.93;;
14377;SDS011;7272;53.668;9.578;2024-02-21T04:31:03;16.27;;;13.80;;
14377;SDS011;7272;53.668;9.578;2024-02-21T04:34:05;14.53;;;12.20;;
14377;SDS011;7272;53.668;9.578;2024-02-21T04:37:07;15.47;;;11.87;;
14377;SDS011;7272;53.668;9.578;2024-02-21T04:40:09;13.97;;;11.80;;
14377;SDS011;7272;53.668;9.578;2024-02-21T04:43:11;12.57;;;11.27;;
14377;SDS011;7272;53.668;9.578;2024-02-21T04:46:12;13.47;;;12.03;;
14377;SDS011;7272;53.668;9.578;2024-02-21T04:49:13;14.10;;;11.10;;
14377;SDS011;7272;53.668;9.578;2024-02-21T04:52:14;14.97;;;11.73;;
14377;SDS011;7272;53.668;9.578;2024-02-21T04:55:16;12.50;;;11.20;;
14377;SDS011;7272;53.668;9.578;2024-02-21T04:58:17;12.30;;;11.00;;
14377;SDS011;7272;53.668;9.578;2024-02-21T05:01:19;11.03;;;9.87;;
14377;SDS011;7272;53.668;9.578;2024-02-21T05:04:20;13.03;;;10.57;;
14377;SDS011;7272;53.668;9.578;2024-02-21T05:07:21;10.63;;;9.40;;
14377;SDS011;7272;53.668;9.578;2024-02-21T05:10:23;10.30;;;9.30;;
14377;SDS011;7272;53.668;9.578;2024-02-21T05:13:24;10.77;;;9.77;;
14377;SDS011;7272;53.668;9.578;2024-02-21T05:16:26;11.10;;;10.00;;
14377;SDS011;7272;53.668;9.578;2024-02-21T05:19:27;9.87;;;8.87;;
14377;SDS011;7272;53.668;9.578;2024-02-21T05:22:28;10.50;;;9.40;;
14377;SDS011;7272;53.668;9.578;2024-02-21T05:25:30;13.17;;;10.00;;
14377;SDS011;7272;53.668;9.578;2024-02-21T05:28:31;10.40;;;8.53;;
14377;SDS011;7272;53.668;9.578;2024-02-21T05:31:42;11.03;;;9.53;;
14377;SDS011;7272;53.668;9.578;2024-02-21T05:34:55;8.37;;;7.47;;
14377;SDS011;7272;53.668;9.578;2024-02-21T05:37:58;11.20;;;8.67;;
14377;SDS011;7272;53.668;9.578;2024-02-21T05:41:00;7.90;;;7.17;;
14377;SDS011;7272;53.668;9.578;2024-02-21T05:44:01;7.60;;;6.90;;
14377;SDS011;7272;53.668;9.578;2024-02-21T05:47:03;7.87;;;7.10;;
14377;SDS011;7272;53.668;9.578;2024-02-21T05:50:05;7.47;;;6.87;;
14377;SDS011;7272;53.668;9.578;2024-02-21T05:53:06;6.83;;;6.23;;
14377;SDS011;7272;53.668;9.578;2024-02-21T05:56:10;6.57;;;5.97;;
14377;SDS011;7272;53.668;9.578;2024-02-21T05:59:11;6.33;;;5.83;;
14377;SDS011;7272;53.668;9.578;2024-02-21T06:02:13;5.90;;;5.40;;
14377;SDS011;7272;53.668;9.578;2024-02-21T06:05:14;5.57;;;5.07;;
14377;SDS011;7272;53.668;9.578;2024-02-21T06:08:15;5.60;;;5.10;;
14377;SDS011;7272;53.668;9.578;2024-02-21T06:11:17;5.30;;;4.80;;
14377;SDS011;7272;53.668;9.578;2024-02-21T06:14:19;5.40;;;4.90;;
14377;SDS011;7272;53.668;9.578;2024-02-21T06:17:20;6.00;;;5.50;;
14377;SDS011;7272;53.668;9.578;2024-02-21T06:20:21;6.10;;;5.60;;
14377;SDS011;7272;53.668;9.578;2024-02-21T06:23:22;6.50;;;5.90;;
14377;SDS011;7272;53.668;9.578;2024-02-21T06:26:24;5.97;;;5.47;;
14377;SDS011;7272;53.668;9.578;2024-02-21T06:29:26;6.83;;;6.23;;
14377;SDS011;7272;53.668;9.578;2024-02-21T06:32:27;6.63;;;5.97;;
14377;SDS011;7272;53.668;9.578;2024-02-21T06:35:28;7.93;;;7.13;;
14377;SDS011;7272;53.668;9.578;2024-02-21T06:38:29;5.90;;;5.40;;
14377;SDS011;7272;53.668;9.578;2024-02-21T06:41:31;5.73;;;4.80;;
14377;SDS011;7272;53.668;9.578;2024-02-21T06:44:34;5.93;;;5.00;;
14377;SDS011;7272;53.668;9.578;2024-02-21T06:47:40;5.07;;;4.70;;
14377;SDS011;7272;53.668;9.578;2024-02-21T06:50:42;5.40;;;4.90;;
14377;SDS011;7272;53.668;9.578;2024-02-21T06:53:43;7.80;;;4.93;;
14377;SDS011;7272;53.668;9.578;2024-02-21T06:56:45;7.80;;;5.70;;
14377;SDS011;7272;53.668;9.578;2024-02-21T06:59:48;6.80;;;5.30;;
14377;SDS011;7272;53.668;9.578;2024-02-21T07:02:49;7.17;;;4.87;;
14377;SDS011;7272;53.668;9.578;2024-02-21T07:05:51;7.23;;;5.20;;
14377;SDS011;7272;53.668;9.578;2024-02-21T07:08:53;8.80;;;5.17;;
14377;SDS011;7272;53.668;9.578;2024-02-21T07:11:54;10.43;;;4.93;;
14377;SDS011;7272;53.668;9.578;2024-02-21T07:14:56;7.17;;;4.47;;
14377;SDS011;7272;53.668;9.578;2024-02-21T07:17:58;12.00;;;4.70;;
14377;SDS011;7272;53.668;9.578;2024-02-21T07:20:59;12.17;;;5.23;;
14377;SDS011;7272;53.668;9.578;2024-02-21T07:24:00;11.27;;;4.97;;
14377;SDS011;7272;53.668;9.578;2024-02-21T07:27:02;12.67;;;4.73;;
14377;SDS011;7272;53.668;9.578;2024-02-21T07:30:05;11.90;;;4.77;;
14377;SDS011;7272;53.668;9.578;2024-02-21T07:33:07;11.03;;;4.37;;
14377;SDS011;7272;53.668;9.578;2024-02-21T07:36:09;10.53;;;4.63;;
14377;SDS011;7272;53.668;9.578;2024-02-21T07:39:11;10.40;;;4.47;;
14377;SDS011;7272;53.668;9.578;2024-02-21T07:42:13;9.23;;;4.57;;
14377;SDS011;7272;53.668;9.578;2024-02-21T07:45:14;13.57;;;4.53;;
14377;SDS011;7272;53.668;9.578;2024-02-21T07:48:15;10.73;;;3.83;;
14377;SDS011;7272;53.668;9.578;2024-02-21T07:51:19;11.50;;;3.40;;
14377;SDS011;7272;53.668;9.578;2024-02-21T07:54:20;17.10;;;4.20;;
14377;SDS011;7272;53.668;9.578;2024-02-21T07:57:22;10.80;;;4.27;;
14377;SDS011;7272;53.668;9.578;2024-02-21T08:00:23;11.37;;;3.57;;
14377;SDS011;7272;53.668;9.578;2024-02-21T08:03:24;10.77;;;3.63;;
14377;SDS011;7272;53.668;9.578;2024-02-21T08:06:26;10.67;;;3.57;;
14377;SDS011;7272;53.668;9.578;2024-02-21T08:09:27;14.43;;;5.07;;
14377;SDS011;7272;53.668;9.578;2024-02-21T08:12:29;13.53;;;4.33;;
14377;SDS011;7272;53.668;9.578;2024-02-21T08:15:30;10.23;;;3.97;;
14377;SDS011;7272;53.668;9.578;2024-02-21T08:18:32;14.10;;;4.30;;
14377;SDS011;7272;53.668;9.578;2024-02-21T08:21:36;13.40;;;4.30;;
14377;SDS011;7272;53.668;9.578;2024-02-21T08:24:37;9.87;;;3.73;;
14377;SDS011;7272;53.668;9.578;2024-02-21T08:27:39;8.57;;;3.67;;
14377;SDS011;7272;53.668;9.578;2024-02-21T08:30:40;7.53;;;3.80;;
14377;SDS011;7272;53.668;9.578;2024-02-21T08:33:44;12.43;;;4.23;;
14377;SDS011;7272;53.668;9.578;2024-02-21T08:36:46;10.47;;;4.23;;
14377;SDS011;7272;53.668;9.578;2024-02-21T08:39:47;10.67;;;4.23;;
14377;SDS011;7272;53.668;9.578;2024-02-21T08:42:49;11.97;;;4.30;;
14377;SDS011;7272;53.668;9.578;2024-02-21T08:45:50;12.17;;;4.33;;
14377;SDS011;7272;53.668;9.578;2024-02-21T08:48:51;8.03;;;4.20;;
14377;SDS011;7272;53.668;9.578;2024-02-21T08:51:52;9.73;;;4.40;;
14377;SDS011;7272;53.668;9.578;2024-02-21T08:54:54;9.83;;;4.03;;
14377;SDS011;7272;53.668;9.578;2024-02-21T08:57:55;10.87;;;5.03;;
14377;SDS011;7272;53.668;9.578;2024-02-21T09:00:57;12.83;;;4.97;;
14377;SDS011;7272;53.668;9.578;2024-02-21T09:03:58;11.90;;;5.10;;
14377;SDS011;7272;53.668;9.578;2024-02-21T09:06:59;12.67;;;4.70;;
14377;SDS011;7272;53.668;9.578;2024-02-21T09:10:01;9.90;;;4.23;;
14377;SDS011;7272;53.668;9.578;2024-02-21T09:13:04;11.73;;;4.67;;
14377;SDS011;7272;53.668;9.578;2024-02-21T09:16:05;10.70;;;4.70;;
14377;SDS011;7272;53.668;9.578;2024-02-21T09:19:07;10.53;;;4.43;;
14377;SDS011;7272;53.668;9.578;2024-02-21T09:22:11;11.63;;;4.10;;
14377;SDS011;7272;53.668;9.578;2024-02-21T09:25:12;10.73;;;4.03;;
14377;SDS011;7272;53.668;9.578;2024-02-21T09:28:14;12.70;;;3.97;;
14377;SDS011;7272;53.668;9.578;2024-02-21T09:31:16;8.83;;;3.60;;
14377;SDS011;7272;53.668;9.578;2024-02-21T09:34:17;8.60;;;3.57;;
14377;SDS011;7272;53.668;9.578;2024-02-21T09:37:25;7.57;;;3.97;;
14377;SDS011;7272;53.668;9.578;2024-02-21T09:40:26;9.47;;;4.77;;
14377;SDS011;7272;53.668;9.578;2024-02-21T09:43:28;4.67;;;3.50;;
14377;SDS011;7272;53.668;9.578;2024-02-21T09:46:35;6.77;;;3.97;;
14377;SDS011;7272;53.668;9.578;2024-02-21T09:49:43;7.17;;;4.13;;
14377;SDS011;7272;53.668;9.578;2024-02-21T09:52:48;6.47;;;3.53;;
14377;SDS011;7272;53.668;9.578;2024-02-21T09:55:52;7.73;;;4.03;;
14377;SDS011;7272;53.668;9.578;2024-02-21T09:58:53;7.60;;;4.63;;
14377;SDS011;7272;53.668;9.578;2024-02-21T10:01:55;5.90;;;4.57;;
14377;SDS011;7272;53.668;9.578;2024-02-21T10:04:56;5.90;;;3.53;;
14377;SDS011;7272;53.668;9.578;2024-02-21T10:07:59;5.40;;;3.77;;
14377;SDS011;7272;53.668;9.578;2024-02-21T10:11:00;8.20;;;4.60;;
14377;SDS011;7272;53.668;9.578;2024-02-21T10:14:03;5.83;;;3.80;;
14377;SDS011;7272;53.668;9.578;2024-02-21T10:17:05;3.93;;;3.37;;
14377;SDS011;7272;53.668;9.578;2024-02-21T10:20:10;6.50;;;3.47;;
14377;SDS011;7272;53.668;9.578;2024-02-21T10:23:13;3.50;;;3.13;;
14377;SDS011;7272;53.668;9.578;2024-02-21T10:26:14;4.30;;;3.23;;
14377;SDS011;7272;53.668;9.578;2024-02-21T10:29:16;3.60;;;3.30;;
14377;SDS011;7272;53.668;9.578;2024-02-21T10:32:18;5.17;;;4.77;;
14377;SDS011;7272;53.668;9.578;2024-02-21T10:35:25;5.30;;;4.80;;
14377;SDS011;7272;53.668;9.578;2024-02-21T10:38:28;6.40;;;5.90;;
14377;SDS011;7272;53.668;9.578;2024-02-21T10:41:29;6.27;;;5.77;;
14377;SDS011;7272;53.668;9.578;2024-02-21T10:44:33;7.83;;;7.03;;
14377;SDS011;7272;53.668;9.578;2024-02-21T10:47:38;8.13;;;7.20;;
14377;SDS011;7272;53.668;9.578;2024-02-21T10:50:47;10.00;;;7.93;;
14377;SDS011;7272;53.668;9.578;2024-02-21T10:53:58;10.83;;;8.67;;
14377;SDS011;7272;53.668;9.578;2024-02-21T10:57:09;9.53;;;7.83;;
14377;SDS011;7272;53.668;9.578;2024-02-21T11:00:13;10.30;;;8.30;;
14377;SDS011;7272;53.668;9.578;2024-02-21T11:03:18;12.20;;;10.13;;
14377;SDS011;7272;53.668;9.578;2024-02-21T11:06:20;12.97;;;10.37;;
14377;SDS011;7272;53.668;9.578;2024-02-21T11:09:29;11.60;;;10.43;;
14377;SDS011;7272;53.668;9.578;2024-02-21T11:12:32;13.30;;;11.27;;
14377;SDS011;7272;53.668;9.578;2024-02-21T11:15:33;12.07;;;10.30;;
14377;SDS011;7272;53.668;9.578;2024-02-21T11:18:35;15.70;;;11.83;;
14377;SDS011;7272;53.668;9.578;2024-02-21T11:21:36;13.50;;;11.07;;
14377;SDS011;7272;53.668;9.578;2024-02-21T11:24:39;13.30;;;10.67;;
14377;SDS011;7272;53.668;9.578;2024-02-21T11:27:45;13.13;;;11.70;;
14377;SDS011;7272;53.668;9.578;2024-02-21T11:30:46;15.20;;;12.93;;
14377;SDS011;7272;53.668;9.578;2024-02-21T11:33:51;15.43;;;12.17;;
14377;SDS011;7272;53.668;9.578;2024-02-21T11:36:52;12.27;;;11.00;;
14377;SDS011;7272;53.668;9.578;2024-02-21T11:39:54;15.00;;;12.13;;
14377;SDS011;7272;53.668;9.578;2024-02-21T11:42:57;13.33;;;11.10;;
14377;SDS011;7272;53.668;9.578;2024-02-21T11:46:00;12.70;;;11.50;;
14377;SDS011;7272;53.668;9.578;2024-02-21T11:49:03;15.47;;;12.03;;
14377;SDS011;7272;53.668;9.578;2024-02-21T11:52:05;12.97;;;11.70;;
14377;SDS011;7272;53.668;9.578;2024-02-21T11:55:07;15.70;;;13.53;;
14377;SDS011;7272;53.668;9.578;2024-02-21T11:58:09;13.53;;;12.10;;
14377;SDS011;7272;53.668;9.578;2024-02-21T12:01:10;13.67;;;12.03;;
14377;SDS011;7272;53.668;9.578;2024-02-21T12:04:11;16.67;;;12.60;;
14377;SDS011;7272;53.668;9.578;2024-02-21T12:07:14;14.53;;;12.17;;
14377;SDS011;7272;53.668;9.578;2024-02-21T12:10:15;14.63;;;12.10;;
14377;SDS011;7272;53.668;9.578;2024-02-21T12:13:17;14.63;;;12.23;;
14377;SDS011;7272;53.668;9.578;2024-02-21T12:16:23;14.93;;;11.13;;
14377;SDS011;7272;53.668;9.578;2024-02-21T12:19:24;14.70;;;12.67;;
14377;SDS011;7272;53.668;9.578;2024-02-21T12:22:25;14.03;;;12.33;;
14377;SDS011;7272;53.668;9.578;2024-02-21T12:25:28;14.23;;;11.43;;
14377;SDS011;7272;53.668;9.578;2024-02-21T12:28:30;14.73;;;12.33;;
14377;SDS011;7272;53.668;9.578;2024-02-21T12:31:31;14.23;;;12.67;;
14377;SDS011;7272;53.668;9.578;2024-02-21T12:34:32;16.50;;;14.10;;
14377;SDS011;7272;53.668;9.578;2024-02-21T12:37:33;18.33;;;16.37;;
14377;SDS011;7272;53.668;9.578;2024-02-21T12:40:36;17.97;;;16.07;;
14377;SDS011;7272;53.668;9.578;2024-02-21T12:43:37;17.77;;;15.87;;
14377;SDS011;7272;53.668;9.578;2024-02-21T12:46:38;17.53;;;15.73;;
14377;SDS011;7272;53.668;9.578;2024-02-21T12:49:40;16.93;;;14.97;;
14377;SDS011;7272;53.668;9.578;2024-02-21T12:52:41;23.63;;;17.23;;
14377;SDS011;7272;53.668;9.578;2024-02-21T12:55:43;17.80;;;15.70;;
14377;SDS011;7272;53.668;9.578;2024-02-21T12:58:44;16.07;;;14.37;;
14377;SDS011;7272;53.668;9.578;2024-02-21T13:01:45;17.63;;;13.50;;
14377;SDS011;7272;53.668;9.578;2024-02-21T13:04:47;17.43;;;14.87;;
14377;SDS011;7272;53.668;9.578;2024-02-21T13:07:48;14.27;;;12.87;;
14377;SDS011;7272;53.668;9.578;2024-02-21T13:10:50;13.73;;;12.40;;
14377;SDS011;7272;53.668;9.578;2024-02-21T13:13:51;16.83;;;15.03;;
14377;SDS011;7272;53.668;9.578;2024-02-21T13:16:53;15.37;;;13.80;;
14377;SDS011;7272;53.668;9.578;2024-02-21T13:19:54;16.90;;;14.03;;
14377;SDS011;7272;53.668;9.578;2024-02-21T13:22:55;14.27;;;12.77;;
14377;SDS011;7272;53.668;9.578;2024-02-21T13:25:57;13.90;;;12.47;;
14377;SDS011;7272;53.668;9.578;2024-02-21T13:28:58;15.20;;;13.23;;
14377;SDS011;7272;53.668;9.578;2024-02-21T13:32:00;17.73;;;13.47;;
14377;SDS011;7272;53.668;9.578;2024-02-21T13:35:01;14.20;;;12.70;;
14377;SDS011;7272;53.668;9.578;2024-02-21T13:38:03;13.90;;;11.57;;
14377;SDS011;7272;53.668;9.578;2024-02-21T13:41:05;18.60;;;12.57;;
14377;SDS011;7272;53.668;9.578;2024-02-21T13:44:06;15.67;;;12.00;;
14377;SDS011;7272;53.668;9.578;2024-02-21T13:47:09;12.77;;;11.43;;
14377;SDS011;7272;53.668;9.578;2024-02-21T13:50:11;15.63;;;13.20;;
14377;SDS011;7272;53.668;9.578;2024-02-21T13:53:14;12.47;;;10.63;;
14377;SDS011;7272;53.668;9.578;2024-02-21T13:56:16;12.43;;;11.13;;
14377;SDS011;7272;53.668;9.578;2024-02-21T13:59:17;15.30;;;10.67;;
14377;SDS011;7272;53.668;9.578;2024-02-21T14:02:19;14.03;;;9.87;;
14377;SDS011;7272;53.668;9.578;2024-02-21T14:05:21;13.37;;;10.37;;
14377;SDS011;7272;53.668;9.578;2024-02-21T14:08:22;11.37;;;10.27;;
14377;SDS011;7272;53.668;9.578;2024-02-21T14:11:24;15.60;;;10.93;;
14377;SDS011;7272;53.668;9.578;2024-02-21T14:14:27;11.93;;;10.23;;
14377;SDS011;7272;53.668;9.578;2024-02-21T14:17:28;13.17;;;9.97;;
14377;SDS011;7272;53.668;9.578;2024-02-21T14:20:29;14.23;;;10.67;;
14377;SDS011;7272;53.668;9.578;2024-02-21T14:23:30;12.00;;;9.93;;
14377;SDS011;7272;53.668;9.578;2024-02-21T14:26:34;13.43;;;9.73;;
14377;SDS011;7272;53.668;9.578;2024-02-21T14:29:36;11.23;;;10.03;;
14377;SDS011;7272;53.668;9.578;2024-02-21T14:32:38;10.27;;;9.23;;
14377;SDS011;7272;53.668;9.578;2024-02-21T14:35:40;9.23;;;8.33;;
14377;SDS011;7272;53.668;9.578;2024-02-21T14:38:42;10.33;;;9.27;;
14377;SDS011;7272;53.668;9.578;2024-02-21T14:41:44;11.13;;;8.93;;
14377;SDS011;7272;53.668;9.578;2024-02-21T14:44:46;9.63;;;8.63;;
14377;SDS011;7272;53.668;9.578;2024-02-21T14:47:47;9.27;;;8.20;;
14377;SDS011;7272;53.668;9.578;2024-02-21T14:50:48;10.27;;;7.97;;
14377;SDS011;7272;53.668;9.578;2024-02-21T14:53:49;9.47;;;7.57;;
14377;SDS011;7272;53.668;9.578;2024-02-21T14:56:52;8.47;;;7.00;;
14377;SDS011;7272;53.668;9.578;2024-02-21T14:59:54;9.43;;;7.23;;
14377;SDS011;7272;53.668;9.578;2024-02-21T15:02:58;8.50;;;6.70;;
14377;SDS011;7272;53.668;9.578;2024-02-21T15:06:00;9.60;;;6.80;;
14377;SDS011;7272;53.668;9.578;2024-02-21T15:09:02;8.30;;;6.80;;
14377;SDS011;7272;53.668;9.578;2024-02-21T15:12:04;8.53;;;6.43;;
14377;SDS011;7272;53.668;9.578;2024-02-21T15:15:06;7.93;;;5.73;;
14377;SDS011;7272;53.668;9.578;2024-02-21T15:18:08;6.73;;;5.80;;
14377;SDS011;7272;53.668;9.578;2024-02-21T15:21:10;6.67;;;5.70;;
14377;SDS011;7272;53.668;9.578;2024-02-21T15:24:14;6.73;;;5.60;;
14377;SDS011;7272;53.668;9.578;2024-02-21T15:27:17;6.47;;;5.40;;
14377;SDS011;7272;53.668;9.578;2024-02-21T15:30:18;6.07;;;5.20;;
14377;SDS011;7272;53.668;9.578;2024-02-21T15:33:19;6.20;;;5.37;;
14377;SDS011;7272;53.668;9.578;2024-02-21T15:36:21;7.83;;;6.13;;
14377;SDS011;7272;53.668;9.578;2024-02-21T15:39:22;7.37;;;5.60;;
14377;SDS011;7272;53.668;9.578;2024-02-21T15:42:24;7.70;;;5.73;;
14377;SDS011;7272;53.668;9.578;2024-02-21T15:45:25;7.37;;;5.97;;
14377;SDS011;7272;53.668;9.578;2024-02-21T15:48:26;7.50;;;5.33;;
14377;SDS011;7272;53.668;9.578;2024-02-21T15:51:28;6.67;;;5.63;;
14377;SDS011;7272;53.668;9.578;2024-02-21T15:54:30;7.90;;;6.33;;
14377;SDS011;7272;53.668;9.578;2024-02-21T15:57:32;6.90;;;5.87;;
14377;SDS011;7272;53.668;9.578;2024-02-21T16:00:33;7.13;;;6.30;;
14377;SDS011;7272;53.668;9.578;2024-02-21T16:03:34;7.83;;;6.40;;
14377;SDS011;7272;53.668;9.578;2024-02-21T16:06:36;7.13;;;6.43;;
14377;SDS011;7272;53.668;9.578;2024-02-21T16:09:37;7.10;;;6.20;;
14377;SDS011;7272;53.668;9.578;2024-02-21T16:12:39;7.50;;;6.80;;
14377;SDS011;7272;53.668;9.578;2024-02-21T16:15:41;8.57;;;7.03;;
14377;SDS011;7272;53.668;9.578;2024-02-21T16:18:42;7.37;;;6.20;;
14377;SDS011;7272;53.668;9.578;2024-02-21T16:21:45;7.13;;;6.50;;
14377;SDS011;7272;53.668;9.578;2024-02-21T16:24:46;6.50;;;5.90;;
14377;SDS011;7272;53.668;9.578;2024-02-21T16:27:50;7.27;;;6.53;;
14377;SDS011;7272;53.668;9.578;2024-02-21T16:30:51;6.50;;;5.90;;
14377;SDS011;7272;53.668;9.578;2024-02-21T16:33:52;6.27;;;5.60;;
14377;SDS011;7272;53.668;9.578;2024-02-21T16:36:54;7.03;;;6.43;;
14377;SDS011;7272;53.668;9.578;2024-02-21T16:39:57;7.10;;;4.83;;
14377;SDS011;7272;53.668;9.578;2024-02-21T16:42:59;6.83;;;6.10;;
14377;SDS011;7272;53.668;9.578;2024-02-21T16:46:03;7.30;;;5.60;;
14377;SDS011;7272;53.668;9.578;2024-02-21T16:49:04;6.33;;;4.90;;
14377;SDS011;7272;53.668;9.578;2024-02-21T16:52:07;6.93;;;5.47;;
14377;SDS011;7272;53.668;9.578;2024-02-21T16:55:09;5.90;;;5.40;;
14377;SDS011;7272;53.668;9.578;2024-02-21T16:58:11;7.13;;;5.27;;
14377;SDS011;7272;53.668;9.578;2024-02-21T17:01:13;8.63;;;5.90;;
14377;SDS011;7272;53.668;9.578;2024-02-21T17:04:14;6.50;;;5.40;;
14377;SDS011;7272;53.668;9.578;2024-02-21T17:07:15;6.90;;;5.60;;
14377;SDS011;7272;53.668;9.578;2024-02-21T17:10:16;7.70;;;5.80;;
14377;SDS011;7272;53.668;9.578;2024-02-21T17:13:18;6.53;;;5.80;;
14377;SDS011;7272;53.668;9.578;2024-02-21T17:16:19;6.43;;;5.40;;
14377;SDS011;7272;53.668;9.578;2024-02-21T17:19:20;10.07;;;6.70;;
14377;SDS011;7272;53.668;9.578;2024-02-21T17:22:22;6.00;;;5.00;;
14377;SDS011;7272;53.668;9.578;2024-02-21T17:25:23;9.33;;;6.43;;
14377;SDS011;7272;53.668;9.578;2024-02-21T17:28:25;8.33;;;7.20;;
14377;SDS011;7272;53.668;9.578;2024-02-21T17:31:26;8.60;;;6.67;;
14377;SDS011;7272;53.668;9.578;2024-02-21T17:34:28;8.63;;;6.90;;
14377;SDS011;7272;53.668;9.578;2024-02-21T17:37:29;7.57;;;6.33;;
14377;SDS011;7272;53.668;9.578;2024-02-21T17:40:30;9.67;;;6.40;;
14377;SDS011;7272;53.668;9.578;2024-02-21T17:43:33;7.03;;;6.33;;
14377;SDS011;7272;53.668;9.578;2024-02-21T17:46:34;7.30;;;6.60;;
14377;SDS011;7272;53.668;9.578;2024-02-21T17:49:40;8.37;;;6.73;;
14377;SDS011;7272;53.668;9.578;2024-02-21T17:52:43;9.53;;;7.37;;
14377;SDS011;7272;53.668;9.578;2024-02-21T17:55:45;6.83;;;5.67;;
14377;SDS011;7272;53.668;9.578;2024-02-21T17:58:47;9.07;;;6.33;;
14377;SDS011;7272;53.668;9.578;2024-02-21T18:01:48;7.40;;;5.93;;
14377;SDS011;7272;53.668;9.578;2024-02-21T18:04:50;7.70;;;6.40;;
14377;SDS011;7272;53.668;9.578;2024-02-21T18:07:51;8.57;;;6.17;;
14377;SDS011;7272;53.668;9.578;2024-02-21T18:10:53;8.93;;;6.63;;
14377;SDS011;7272;53.668;9.578;2024-02-21T18:13:55;8.47;;;6.40;;